sensor_id;sensor_type;location;lat;lon;timestamp;pressure;altitude;pressure_sealevel;temperature;humidity
47366;BME280;33105;47.964;7.982;2024-02-04T00:02:43;98076.59;;;5.24;100.00
47366;BME280;33105;47.964;7.982;2024-02-04T00:05:45;98078.78;;;5.35;100.00
47366;BME280;33105;47.964;7.982;2024-02-04T00:08:47;98085.94;;;5.42;100.00
47366;BME280;33105;47.964;7.982;2024-02-04T00:11:48;98075.63;;;5.31;100.00
47366;BME280;33105;47.964;7.982;2024-02-04T00:14:49;98063.25;;;5.22;100.00
47366;BME280;33105;47.964;7.982;2024-02-04T00:17:50;98057.69;;;5.30;100.00
47366;BME280;33105;47.964;7.982;2024-02-04T00:20:51;98048.94;;;5.28;100.00
47366;BME280;33105;47.964;7.982;2024-02-04T00:23:53;98037.19;;;5.21;100.00
47366;BME280;33105;47.964;7.982;2024-02-04T00:26:54;98022.66;;;5.01;100.00
47366;BME280;33105;47.964;7.982;2024-02-04T00:29:56;98030.34;;;4.97;100.00
47366;BME280;33105;47.964;7.982;2024-02-04T00:32:57;98024.09;;;4.97;100.00
47366;BME280;33105;47.964;7.982;2024-02-04T00:36:04;98020.88;;;4.87;100.00
47366;BME280;33105;47.964;7.982;2024-02-04T00:39:05;98013.53;;;4.81;100.00
47366;BME280;33105;47.964;7.982;2024-02-04T00:42:08;98008.19;;;4.87;100.00
47366;BME280;33105;47.964;7.982;2024-02-04T00:45:09;98012.97;;;4.85;100.00
47366;BME280;33105;47.964;7.982;2024-02-04T00:48:11;98009.94;;;4.73;100.00
47366;BME280;33105;47.964;7.982;2024-02-04T00:51:12;97999.47;;;4.70;100.00
47366;BME280;33105;47.964;7.982;2024-02-04T00:54:14;97989.50;;;4.71;100.00
47366;BME280;33105;47.964;7.982;2024-02-04T00:57:15;97989.06;;;4.67;100.00
47366;BME280;33105;47.964;7.982;2024-02-04T01:00:17;97988.16;;;4.60;100.00
47366;BME280;33105;47.964;7.982;2024-02-04T01:03:19;97984.50;;;4.68;100.00
47366;BME280;33105;47.964;7.982;2024-02-04T01:06:20;98003.09;;;4.56;100.00
47366;BME280;33105;47.964;7.982;2024-02-04T01:09:21;98000.53;;;4.48;100.00
47366;BME280;33105;47.964;7.982;2024-02-04T01:12:22;97984.03;;;4.64;100.00
47366;BME280;33105;47.964;7.982;2024-02-04T01:15:24;97973.69;;;4.74;100.00
47366;BME280;33105;47.964;7.982;2024-02-04T01:18:26;97972.34;;;4.85;100.00
47366;BME280;33105;47.964;7.982;2024-02-04T01:21:28;97977.19;;;4.90;100.00
47366;BME280;33105;47.964;7.982;2024-02-04T01:24:29;97971.13;;;5.16;100.00
47366;BME280;33105;47.964;7.982;2024-02-04T01:27:33;97965.72;;;5.16;100.00
47366;BME280;33105;47.964;7.982;2024-02-04T01:30:35;97961.13;;;5.16;100.00
47366;BME280;33105;47.964;7.982;2024-02-04T01:33:38;97960.69;;;5.12;100.00
47366;BME280;33105;47.964;7.982;2024-02-04T01:36:39;97960.63;;;5.06;100.00
47366;BME280;33105;47.964;7.982;2024-02-04T01:39:40;97967.72;;;5.07;100.00
47366;BME280;33105;47.964;7.982;2024-02-04T01:42:41;97963.09;;;5.01;100.00
47366;BME280;33105;47.964;7.982;2024-02-04T01:45:42;97970.69;;;5.12;100.00
47366;BME280;33105;47.964;7.982;2024-02-04T01:48:44;97987.31;;;5.09;100.00
47366;BME280;33105;47.964;7.982;2024-02-04T01:51:45;97986.81;;;4.99;100.00
47366;BME280;33105;47.964;7.982;2024-02-04T01:54:47;97989.91;;;4.96;100.00
47366;BME280;33105;47.964;7.982;2024-02-04T01:57:49;97987.81;;;4.91;100.00
47366;BME280;33105;47.964;7.982;2024-02-04T02:00:53;97989.72;;;4.97;100.00
47366;BME280;33105;47.964;7.982;2024-02-04T02:03:54;97980.53;;;4.92;100.00
47366;BME280;33105;47.964;7.982;2024-02-04T02:06:56;97976.34;;;4.89;100.00
47366;BME280;33105;47.964;7.982;2024-02-04T02:10:00;97980.38;;;5.00;100.00
47366;BME280;33105;47.964;7.982;2024-02-04T02:13:08;97976.78;;;4.93;100.00
47366;BME280;33105;47.964;7.982;2024-02-04T02:16:14;97980.09;;;4.88;100.00
47366;BME280;33105;47.964;7.982;2024-02-04T02:23:14;97997.34;;;4.87;100.00
47366;BME280;33105;47.964;7.982;2024-02-04T02:26:17;97987.56;;;4.86;100.00
47366;BME280;33105;47.964;7.982;2024-02-04T02:29:19;97971.22;;;5.01;100.00
47366;BME280;33105;47.964;7.982;2024-02-04T02:32:22;97962.81;;;5.24;100.00
47366;BME280;33105;47.964;7.982;2024-02-04T02:35:24;97962.00;;;4.95;100.00
47366;BME280;33105;47.964;7.982;2024-02-04T02:41:59;97960.31;;;4.66;100.00
47366;BME280;33105;47.964;7.982;2024-02-04T02:45:01;97968.91;;;4.70;100.00
47366;BME280;33105;47.964;7.982;2024-02-04T02:48:03;97972.88;;;4.74;100.00
47366;BME280;33105;47.964;7.982;2024-02-04T02:51:06;97975.25;;;4.84;100.00
47366;BME280;33105;47.964;7.982;2024-02-04T02:54:08;97981.13;;;4.87;100.00
47366;BME280;33105;47.964;7.982;2024-02-04T02:57:09;97973.75;;;4.81;100.00
47366;BME280;33105;47.964;7.982;2024-02-04T03:00:11;97977.31;;;4.82;100.00
47366;BME280;33105;47.964;7.982;2024-02-04T03:03:12;97982.97;;;4.87;100.00
47366;BME280;33105;47.964;7.982;2024-02-04T03:06:13;97990.53;;;4.91;100.00
47366;BME280;33105;47.964;7.982;2024-02-04T03:09:14;97997.28;;;4.81;100.00
47366;BME280;33105;47.964;7.982;2024-02-04T03:12:16;97998.06;;;4.74;100.00
47366;BME280;33105;47.964;7.982;2024-02-04T03:15:17;98005.41;;;4.81;100.00
47366;BME280;33105;47.964;7.982;2024-02-04T03:18:18;98015.78;;;4.77;100.00
47366;BME280;33105;47.964;7.982;2024-02-04T03:21:19;98012.97;;;4.64;100.00
47366;BME280;33105;47.964;7.982;2024-02-04T03:24:21;98019.34;;;4.56;100.00
47366;BME280;33105;47.964;7.982;2024-02-04T03:27:22;98025.75;;;4.70;100.00
47366;BME280;33105;47.964;7.982;2024-02-04T03:30:24;98020.09;;;4.71;100.00
47366;BME280;33105;47.964;7.982;2024-02-04T03:33:25;98024.09;;;4.75;100.00
47366;BME280;33105;47.964;7.982;2024-02-04T03:36:27;98025.31;;;4.73;100.00
47366;BME280;33105;47.964;7.982;2024-02-04T03:39:28;98036.88;;;4.60;100.00
47366;BME280;33105;47.964;7.982;2024-02-04T03:42:30;98046.41;;;4.56;100.00
47366;BME280;33105;47.964;7.982;2024-02-04T03:45:32;98043.13;;;4.39;100.00
47366;BME280;33105;47.964;7.982;2024-02-04T03:48:33;98044.22;;;4.45;100.00
47366;BME280;33105;47.964;7.982;2024-02-04T03:51:36;98040.09;;;4.49;100.00
47366;BME280;33105;47.964;7.982;2024-02-04T03:54:37;98047.63;;;4.54;100.00
47366;BME280;33105;47.964;7.982;2024-02-04T03:57:38;98042.28;;;4.60;100.00
47366;BME280;33105;47.964;7.982;2024-02-04T04:00:40;98044.09;;;4.53;100.00
47366;BME280;33105;47.964;7.982;2024-02-04T04:03:42;98035.22;;;4.59;100.00
47366;BME280;33105;47.964;7.982;2024-02-04T04:06:45;98026.38;;;4.72;100.00
47366;BME280;33105;47.964;7.982;2024-02-04T04:09:46;98023.63;;;4.65;100.00
47366;BME280;33105;47.964;7.982;2024-02-04T04:12:47;98014.38;;;4.60;100.00
47366;BME280;33105;47.964;7.982;2024-02-04T04:15:50;98001.13;;;4.65;100.00
47366;BME280;33105;47.964;7.982;2024-02-04T04:18:51;98002.72;;;4.59;100.00
47366;BME280;33105;47.964;7.982;2024-02-04T04:21:53;97999.63;;;4.62;100.00
47366;BME280;33105;47.964;7.982;2024-02-04T04:24:55;98006.84;;;4.55;100.00
47366;BME280;33105;47.964;7.982;2024-02-04T04:27:57;98000.41;;;4.56;100.00
47366;BME280;33105;47.964;7.982;2024-02-04T04:30:59;98000.13;;;4.51;100.00
47366;BME280;33105;47.964;7.982;2024-02-04T04:34:00;97999.75;;;4.54;100.00
47366;BME280;33105;47.964;7.982;2024-02-04T04:37:01;97985.59;;;4.52;100.00
47366;BME280;33105;47.964;7.982;2024-02-04T04:40:02;97989.00;;;4.61;100.00
47366;BME280;33105;47.964;7.982;2024-02-04T04:43:04;97981.28;;;4.58;100.00
47366;BME280;33105;47.964;7.982;2024-02-04T04:46:05;97989.47;;;4.64;100.00
47366;BME280;33105;47.964;7.982;2024-02-04T04:49:06;97986.47;;;4.81;100.00
47366;BME280;33105;47.964;7.982;2024-02-04T04:52:08;97998.72;;;4.76;100.00
47366;BME280;33105;47.964;7.982;2024-02-04T04:55:09;97982.84;;;4.73;100.00
47366;BME280;33105;47.964;7.982;2024-02-04T04:58:11;97985.69;;;4.87;100.00
47366;BME280;33105;47.964;7.982;2024-02-04T05:01:12;97981.69;;;4.83;100.00
47366;BME280;33105;47.964;7.982;2024-02-04T05:04:15;97991.63;;;4.75;100.00
47366;BME280;33105;47.964;7.982;2024-02-04T05:07:16;97993.69;;;4.73;100.00
47366;BME280;33105;47.964;7.982;2024-02-04T05:10:18;97990.72;;;4.90;100.00
47366;BME280;33105;47.964;7.982;2024-02-04T05:13:19;98003.34;;;4.83;100.00
47366;BME280;33105;47.964;7.982;2024-02-04T05:16:20;97987.31;;;4.81;100.00
47366;BME280;33105;47.964;7.982;2024-02-04T05:19:21;97987.56;;;4.86;100.00
47366;BME280;33105;47.964;7.982;2024-02-04T05:22:22;97986.38;;;4.95;100.00
47366;BME280;33105;47.964;7.982;2024-02-04T05:25:24;97981.69;;;4.83;100.00
47366;BME280;33105;47.964;7.982;2024-02-04T05:28:26;97980.03;;;4.82;100.00
47366;BME280;33105;47.964;7.982;2024-02-04T05:31:27;97967.84;;;4.71;100.00
47366;BME280;33105;47.964;7.982;2024-02-04T05:34:28;97968.69;;;4.71;100.00
47366;BME280;33105;47.964;7.982;2024-02-04T05:37:31;97961.25;;;4.80;100.00
47366;BME280;33105;47.964;7.982;2024-02-04T05:40:33;97973.59;;;4.61;100.00
47366;BME280;33105;47.964;7.982;2024-02-04T05:43:35;97965.16;;;4.50;100.00
47366;BME280;33105;47.964;7.982;2024-02-04T05:46:36;97968.06;;;4.48;100.00
47366;BME280;33105;47.964;7.982;2024-02-04T05:49:37;97964.91;;;4.44;100.00
47366;BME280;33105;47.964;7.982;2024-02-04T05:52:38;97963.75;;;4.32;100.00
47366;BME280;33105;47.964;7.982;2024-02-04T05:55:40;97963.69;;;4.26;100.00
47366;BME280;33105;47.964;7.982;2024-02-04T05:58:41;97967.22;;;4.26;100.00
47366;BME280;33105;47.964;7.982;2024-02-04T06:01:42;97964.22;;;4.36;100.00
47366;BME280;33105;47.964;7.982;2024-02-04T06:04:43;97969.88;;;4.20;100.00
47366;BME280;33105;47.964;7.982;2024-02-04T06:07:45;97968.69;;;4.07;100.00
47366;BME280;33105;47.964;7.982;2024-02-04T06:10:46;97984.16;;;4.14;100.00
47366;BME280;33105;47.964;7.982;2024-02-04T06:13:47;97987.34;;;4.02;100.00
47366;BME280;33105;47.964;7.982;2024-02-04T06:16:48;97980.00;;;3.96;100.00
47366;BME280;33105;47.964;7.982;2024-02-04T06:19:49;97996.81;;;3.92;100.00
47366;BME280;33105;47.964;7.982;2024-02-04T06:22:51;98011.72;;;3.88;100.00
47366;BME280;33105;47.964;7.982;2024-02-04T06:25:55;98026.06;;;3.88;100.00
47366;BME280;33105;47.964;7.982;2024-02-04T06:28:57;98018.25;;;3.93;100.00
47366;BME280;33105;47.964;7.982;2024-02-04T06:31:58;98011.88;;;4.01;100.00
47366;BME280;33105;47.964;7.982;2024-02-04T06:35:00;98027.63;;;3.97;100.00
47366;BME280;33105;47.964;7.982;2024-02-04T06:38:01;98050.38;;;4.03;100.00
47366;BME280;33105;47.964;7.982;2024-02-04T06:41:03;98043.00;;;4.12;100.00
47366;BME280;33105;47.964;7.982;2024-02-04T06:44:04;98053.81;;;4.12;100.00
47366;BME280;33105;47.964;7.982;2024-02-04T06:47:05;98065.28;;;4.14;100.00
47366;BME280;33105;47.964;7.982;2024-02-04T06:50:07;98062.47;;;4.22;100.00
47366;BME280;33105;47.964;7.982;2024-02-04T06:53:08;98066.47;;;4.26;100.00
47366;BME280;33105;47.964;7.982;2024-02-04T06:56:09;98065.91;;;4.30;100.00
47366;BME280;33105;47.964;7.982;2024-02-04T06:59:10;98067.00;;;4.36;100.00
47366;BME280;33105;47.964;7.982;2024-02-04T07:02:11;98067.56;;;4.31;100.00
47366;BME280;33105;47.964;7.982;2024-02-04T07:05:13;98062.25;;;4.23;100.00
47366;BME280;33105;47.964;7.982;2024-02-04T07:08:16;98057.03;;;4.22;100.00
47366;BME280;33105;47.964;7.982;2024-02-04T07:11:18;98048.03;;;4.15;100.00
47366;BME280;33105;47.964;7.982;2024-02-04T07:14:19;98044.69;;;4.13;100.00
47366;BME280;33105;47.964;7.982;2024-02-04T07:17:21;98041.13;;;4.12;100.00
47366;BME280;33105;47.964;7.982;2024-02-04T07:20:22;98041.69;;;4.07;100.00
47366;BME280;33105;47.964;7.982;2024-02-04T07:23:23;98035.16;;;4.17;100.00
47366;BME280;33105;47.964;7.982;2024-02-04T07:26:24;98031.47;;;4.24;100.00
47366;BME280;33105;47.964;7.982;2024-02-04T07:29:25;98019.53;;;4.33;100.00
47366;BME280;33105;47.964;7.982;2024-02-04T07:32:26;98028.41;;;4.27;100.00
47366;BME280;33105;47.964;7.982;2024-02-04T07:35:28;98035.00;;;4.39;100.00
47366;BME280;33105;47.964;7.982;2024-02-04T07:38:29;98025.22;;;4.38;100.00
47366;BME280;33105;47.964;7.982;2024-02-04T07:41:32;98018.69;;;4.33;100.00
47366;BME280;33105;47.964;7.982;2024-02-04T07:44:34;98014.31;;;4.53;100.00
47366;BME280;33105;47.964;7.982;2024-02-04T07:47:35;98015.88;;;4.62;100.00
47366;BME280;33105;47.964;7.982;2024-02-04T07:50:37;98003.50;;;4.53;100.00
47366;BME280;33105;47.964;7.982;2024-02-04T07:53:38;97995.63;;;4.58;100.00
47366;BME280;33105;47.964;7.982;2024-02-04T07:56:40;97993.66;;;4.67;100.00
47366;BME280;33105;47.964;7.982;2024-02-04T07:59:41;97991.59;;;4.69;100.00
47366;BME280;33105;47.964;7.982;2024-02-04T08:02:44;97986.56;;;4.66;100.00
47366;BME280;33105;47.964;7.982;2024-02-04T08:05:45;97981.91;;;4.60;100.00
47366;BME280;33105;47.964;7.982;2024-02-04T08:08:46;97981.72;;;4.61;100.00
47366;BME280;33105;47.964;7.982;2024-02-04T08:11:48;97975.94;;;4.64;100.00
47366;BME280;33105;47.964;7.982;2024-02-04T08:14:50;97970.25;;;4.59;100.00
47366;BME280;33105;47.964;7.982;2024-02-04T08:17:51;97972.03;;;4.73;100.00
47366;BME280;33105;47.964;7.982;2024-02-04T08:20:52;97981.81;;;4.74;100.00
47366;BME280;33105;47.964;7.982;2024-02-04T08:23:54;97983.25;;;4.70;100.00
47366;BME280;33105;47.964;7.982;2024-02-04T08:26:55;98001.63;;;4.75;100.00
47366;BME280;33105;47.964;7.982;2024-02-04T08:29:56;98003.09;;;4.77;100.00
47366;BME280;33105;47.964;7.982;2024-02-04T08:32:57;98005.88;;;4.84;100.00
47366;BME280;33105;47.964;7.982;2024-02-04T08:35:58;98002.97;;;4.86;100.00
47366;BME280;33105;47.964;7.982;2024-02-04T08:38:59;98001.31;;;5.12;100.00
47366;BME280;33105;47.964;7.982;2024-02-04T08:42:01;98016.59;;;5.55;100.00
47366;BME280;33105;47.964;7.982;2024-02-04T08:45:02;98012.13;;;5.40;100.00
47366;BME280;33105;47.964;7.982;2024-02-04T08:48:03;98012.81;;;5.21;100.00
47366;BME280;33105;47.964;7.982;2024-02-04T08:51:11;98000.84;;;5.37;100.00
47366;BME280;33105;47.964;7.982;2024-02-04T08:54:13;98001.94;;;5.15;100.00
47366;BME280;33105;47.964;7.982;2024-02-04T08:57:14;97989.41;;;5.41;100.00
47366;BME280;33105;47.964;7.982;2024-02-04T09:00:16;97990.34;;;5.27;100.00
47366;BME280;33105;47.964;7.982;2024-02-04T09:03:18;97983.66;;;5.23;100.00
47366;BME280;33105;47.964;7.982;2024-02-04T09:06:19;97986.94;;;5.12;100.00
47366;BME280;33105;47.964;7.982;2024-02-04T09:09:21;97991.06;;;5.08;100.00
47366;BME280;33105;47.964;7.982;2024-02-04T09:12:23;97986.94;;;5.12;100.00
47366;BME280;33105;47.964;7.982;2024-02-04T09:15:24;97988.41;;;5.15;100.00
47366;BME280;33105;47.964;7.982;2024-02-04T09:18:25;97995.69;;;5.14;100.00
47366;BME280;33105;47.964;7.982;2024-02-04T09:21:26;97994.34;;;5.31;100.00
47366;BME280;33105;47.964;7.982;2024-02-04T09:24:30;97994.66;;;5.50;100.00
47366;BME280;33105;47.964;7.982;2024-02-04T09:27:31;97982.63;;;5.59;100.00
47366;BME280;33105;47.964;7.982;2024-02-04T09:30:32;97979.19;;;5.78;100.00
47366;BME280;33105;47.964;7.982;2024-02-04T09:33:34;97979.19;;;5.78;100.00
47366;BME280;33105;47.964;7.982;2024-02-04T09:36:36;97963.84;;;5.98;100.00
47366;BME280;33105;47.964;7.982;2024-02-04T09:39:37;97955.25;;;5.88;100.00
47366;BME280;33105;47.964;7.982;2024-02-04T09:42:40;97944.44;;;5.95;100.00
47366;BME280;33105;47.964;7.982;2024-02-04T09:45:41;97940.97;;;6.14;100.00
47366;BME280;33105;47.964;7.982;2024-02-04T09:48:44;97943.03;;;6.12;100.00
47366;BME280;33105;47.964;7.982;2024-02-04T09:51:46;97933.44;;;6.23;100.00
47366;BME280;33105;47.964;7.982;2024-02-04T09:54:55;97934.31;;;6.36;100.00
47366;BME280;33105;47.964;7.982;2024-02-04T09:57:57;97933.25;;;6.31;100.00
47366;BME280;33105;47.964;7.982;2024-02-04T10:01:03;97938.06;;;6.35;100.00
47366;BME280;33105;47.964;7.982;2024-02-04T10:04:05;97929.53;;;6.58;100.00
47366;BME280;33105;47.964;7.982;2024-02-04T10:07:06;97937.47;;;6.40;100.00
47366;BME280;33105;47.964;7.982;2024-02-04T10:10:08;97940.81;;;6.62;99.73
47366;BME280;33105;47.964;7.982;2024-02-04T10:13:11;97935.38;;;6.68;100.00
47366;BME280;33105;47.964;7.982;2024-02-04T10:16:14;97937.47;;;6.79;98.61
47366;BME280;33105;47.964;7.982;2024-02-04T10:19:15;97938.31;;;6.80;99.51
47366;BME280;33105;47.964;7.982;2024-02-04T10:22:16;97946.69;;;6.85;95.20
47366;BME280;33105;47.964;7.982;2024-02-04T10:25:20;97966.72;;;6.58;99.98
47366;BME280;33105;47.964;7.982;2024-02-04T10:28:21;97975.06;;;6.56;100.00
47366;BME280;33105;47.964;7.982;2024-02-04T10:31:23;97978.38;;;6.38;100.00
47366;BME280;33105;47.964;7.982;2024-02-04T10:34:26;97978.81;;;6.55;100.00
47366;BME280;33105;47.964;7.982;2024-02-04T10:37:28;97975.06;;;6.63;100.00
47366;BME280;33105;47.964;7.982;2024-02-04T10:40:30;97972.56;;;6.81;100.00
47366;BME280;33105;47.964;7.982;2024-02-04T10:43:33;97977.59;;;7.04;99.92
47366;BME280;33105;47.964;7.982;2024-02-04T10:46:35;97970.50;;;6.90;100.00
47366;BME280;33105;47.964;7.982;2024-02-04T10:49:42;97967.56;;;6.85;100.00
47366;BME280;33105;47.964;7.982;2024-02-04T10:52:48;97955.84;;;7.04;99.46
47366;BME280;33105;47.964;7.982;2024-02-04T10:55:52;97946.56;;;7.44;98.48
47366;BME280;33105;47.964;7.982;2024-02-04T10:58:59;97931.72;;;7.47;99.02
47366;BME280;33105;47.964;7.982;2024-02-04T11:02:05;97924.88;;;7.38;96.56
47366;BME280;33105;47.964;7.982;2024-02-04T11:05:08;97925.28;;;7.41;98.34
47366;BME280;33105;47.964;7.982;2024-02-04T11:08:10;97930.25;;;7.51;97.87
47366;BME280;33105;47.964;7.982;2024-02-04T11:11:13;97929.09;;;7.01;99.70
47366;BME280;33105;47.964;7.982;2024-02-04T11:14:16;97929.13;;;6.74;99.74
47366;BME280;33105;47.964;7.982;2024-02-04T11:21:08;97924.50;;;6.48;100.00
47366;BME280;33105;47.964;7.982;2024-02-04T11:24:44;97924.53;;;6.75;100.00
47366;BME280;33105;47.964;7.982;2024-02-04T11:27:43;97927.44;;;6.60;100.00
47366;BME280;33105;47.964;7.982;2024-02-04T11:30:45;97921.59;;;6.57;100.00
47366;BME280;33105;47.964;7.982;2024-02-04T11:33:50;97921.38;;;6.45;100.00
47366;BME280;33105;47.964;7.982;2024-02-04T11:36:52;97908.84;;;6.70;100.00
47366;BME280;33105;47.964;7.982;2024-02-04T11:39:54;97921.19;;;6.66;100.00
47366;BME280;33105;47.964;7.982;2024-02-04T11:43:04;97930.38;;;6.78;100.00
47366;BME280;33105;47.964;7.982;2024-02-04T11:46:06;97913.84;;;7.00;100.00
47366;BME280;33105;47.964;7.982;2024-02-04T11:49:14;97912.53;;;7.29;99.00
47366;BME280;33105;47.964;7.982;2024-02-04T11:52:18;97913.41;;;7.16;97.34
47366;BME280;33105;47.964;7.982;2024-02-04T11:55:22;97923.25;;;7.10;98.25
47366;BME280;33105;47.964;7.982;2024-02-04T11:58:24;97913.78;;;7.33;98.99
47366;BME280;33105;47.964;7.982;2024-02-04T12:01:25;97910.97;;;7.66;97.46
47366;BME280;33105;47.964;7.982;2024-02-04T12:04:27;97911.44;;;7.49;95.13
47366;BME280;33105;47.964;7.982;2024-02-04T12:07:29;97913.56;;;7.41;96.20
47366;BME280;33105;47.964;7.982;2024-02-04T12:10:33;97901.88;;;7.85;94.91
47366;BME280;33105;47.964;7.982;2024-02-04T12:13:35;97891.66;;;7.80;94.21
47366;BME280;33105;47.964;7.982;2024-02-04T12:16:39;97889.06;;;7.92;95.44
47366;BME280;33105;47.964;7.982;2024-02-04T12:19:41;97882.13;;;8.41;91.28
47366;BME280;33105;47.964;7.982;2024-02-04T12:22:42;97878.03;;;8.18;94.00
47366;BME280;33105;47.964;7.982;2024-02-04T12:25:45;97878.09;;;8.43;89.47
47366;BME280;33105;47.964;7.982;2024-02-04T12:28:46;97878.66;;;8.52;88.27
47366;BME280;33105;47.964;7.982;2024-02-04T12:31:58;97877.81;;;8.51;91.32
47366;BME280;33105;47.964;7.982;2024-02-04T12:35:00;97852.97;;;8.66;89.03
47366;BME280;33105;47.964;7.982;2024-02-04T12:38:02;97860.88;;;8.74;89.59
47366;BME280;33105;47.964;7.982;2024-02-04T12:41:05;97855.09;;;8.89;90.04
47366;BME280;33105;47.964;7.982;2024-02-04T12:44:07;97852.00;;;9.04;87.55
47366;BME280;33105;47.964;7.982;2024-02-04T12:47:08;97842.75;;;9.23;87.25
47366;BME280;33105;47.964;7.982;2024-02-04T12:50:10;97835.25;;;9.18;86.21
47366;BME280;33105;47.964;7.982;2024-02-04T12:53:13;97844.59;;;9.11;86.46
47366;BME280;33105;47.964;7.982;2024-02-04T12:56:16;97837.25;;;9.30;84.15
47366;BME280;33105;47.964;7.982;2024-02-04T12:59:30;97833.38;;;9.01;88.56
47366;BME280;33105;47.964;7.982;2024-02-04T13:02:33;97834.19;;;8.58;90.06
47366;BME280;33105;47.964;7.982;2024-02-04T13:05:36;97853.25;;;8.33;91.02
47366;BME280;33105;47.964;7.982;2024-02-04T13:08:38;97848.22;;;8.37;90.37
47366;BME280;33105;47.964;7.982;2024-02-04T13:11:40;97832.06;;;8.04;90.41
47366;BME280;33105;47.964;7.982;2024-02-04T13:14:42;97825.72;;;8.16;92.36
47366;BME280;33105;47.964;7.982;2024-02-04T13:17:45;97809.25;;;8.30;91.82
47366;BME280;33105;47.964;7.982;2024-02-04T13:20:47;97823.53;;;8.25;91.62
47366;BME280;33105;47.964;7.982;2024-02-04T13:23:50;97822.66;;;8.38;92.51
47366;BME280;33105;47.964;7.982;2024-02-04T13:26:51;97813.50;;;8.75;91.49
47366;BME280;33105;47.964;7.982;2024-02-04T13:29:55;97809.00;;;9.06;88.38
47366;BME280;33105;47.964;7.982;2024-02-04T13:32:57;97797.47;;;8.85;87.72
47366;BME280;33105;47.964;7.982;2024-02-04T13:35:58;97784.56;;;8.56;91.42
47366;BME280;33105;47.964;7.982;2024-02-04T13:39:00;97782.44;;;8.58;90.61
47366;BME280;33105;47.964;7.982;2024-02-04T13:42:01;97790.72;;;8.45;90.93
47366;BME280;33105;47.964;7.982;2024-02-04T13:45:03;97786.13;;;8.45;92.81
47366;BME280;33105;47.964;7.982;2024-02-04T13:48:05;97791.72;;;8.26;91.60
47366;BME280;33105;47.964;7.982;2024-02-04T13:51:07;97793.19;;;8.22;92.11
47366;BME280;33105;47.964;7.982;2024-02-04T13:54:08;97781.22;;;8.54;91.97
47366;BME280;33105;47.964;7.982;2024-02-04T13:57:12;97781.59;;;8.39;92.77
47366;BME280;33105;47.964;7.982;2024-02-04T14:00:14;97780.81;;;8.26;92.60
47366;BME280;33105;47.964;7.982;2024-02-04T14:03:16;97780.19;;;8.24;94.47
47366;BME280;33105;47.964;7.982;2024-02-04T14:06:18;97787.72;;;8.28;94.39
47366;BME280;33105;47.964;7.982;2024-02-04T14:09:20;97790.44;;;8.28;95.23
47366;BME280;33105;47.964;7.982;2024-02-04T14:12:21;97792.09;;;8.29;94.97
47366;BME280;33105;47.964;7.982;2024-02-04T14:20:23;97793.00;;;8.48;95.27
47366;BME280;33105;47.964;7.982;2024-02-04T14:23:24;97781.06;;;8.49;95.49
47366;BME280;33105;47.964;7.982;2024-02-04T14:26:26;97784.53;;;8.31;96.62
47366;BME280;33105;47.964;7.982;2024-02-04T14:29:28;97787.91;;;8.33;94.90
47366;BME280;33105;47.964;7.982;2024-02-04T14:32:29;97785.72;;;8.42;95.12
47366;BME280;33105;47.964;7.982;2024-02-04T14:35:33;97793.31;;;8.40;95.13
47366;BME280;33105;47.964;7.982;2024-02-04T14:38:34;97802.03;;;8.17;95.09
47366;BME280;33105;47.964;7.982;2024-02-04T14:41:38;97795.56;;;8.43;96.96
47366;BME280;33105;47.964;7.982;2024-02-04T14:44:41;97801.00;;;8.43;95.90
47366;BME280;33105;47.964;7.982;2024-02-04T14:47:42;97800.09;;;8.24;96.08
47366;BME280;33105;47.964;7.982;2024-02-04T14:50:46;97790.78;;;8.13;97.02
47366;BME280;33105;47.964;7.982;2024-02-04T14:53:54;97796.25;;;8.07;96.19
47366;BME280;33105;47.964;7.982;2024-02-04T14:56:55;97793.63;;;8.18;95.68
47366;BME280;33105;47.964;7.982;2024-02-04T14:59:56;97799.03;;;8.25;94.27
47366;BME280;33105;47.964;7.982;2024-02-04T15:02:57;97790.06;;;7.93;96.68
47366;BME280;33105;47.964;7.982;2024-02-04T15:06:00;97788.38;;;7.92;95.43
47366;BME280;33105;47.964;7.982;2024-02-04T15:09:03;97790.75;;;7.89;96.22
47366;BME280;33105;47.964;7.982;2024-02-04T15:12:04;97797.94;;;7.70;97.46
47366;BME280;33105;47.964;7.982;2024-02-04T15:15:07;97787.78;;;7.59;98.66
47366;BME280;33105;47.964;7.982;2024-02-04T15:18:09;97790.97;;;7.42;98.06
47366;BME280;33105;47.964;7.982;2024-02-04T15:21:11;97801.47;;;7.39;98.73
47366;BME280;33105;47.964;7.982;2024-02-04T15:24:12;97799.50;;;7.59;99.38
47366;BME280;33105;47.964;7.982;2024-02-04T15:27:16;97806.88;;;7.45;98.52
47366;BME280;33105;47.964;7.982;2024-02-04T15:30:18;97804.19;;;7.39;98.91
47366;BME280;33105;47.964;7.982;2024-02-04T15:33:20;97810.72;;;7.31;100.00
47366;BME280;33105;47.964;7.982;2024-02-04T15:36:23;97818.16;;;7.42;99.81
47366;BME280;33105;47.964;7.982;2024-02-04T15:39:26;97817.75;;;7.45;98.61
47366;BME280;33105;47.964;7.982;2024-02-04T15:42:28;97829.44;;;7.46;100.00
47366;BME280;33105;47.964;7.982;2024-02-04T15:45:30;97829.03;;;7.49;99.45
47366;BME280;33105;47.964;7.982;2024-02-04T15:48:33;97832.22;;;7.39;99.53
47366;BME280;33105;47.964;7.982;2024-02-04T15:51:36;97830.16;;;7.35;100.00
47366;BME280;33105;47.964;7.982;2024-02-04T15:54:39;97841.16;;;7.46;100.00
47366;BME280;33105;47.964;7.982;2024-02-04T15:57:48;97838.09;;;7.36;100.00
47366;BME280;33105;47.964;7.982;2024-02-04T16:00:51;97842.72;;;7.29;100.00
47366;BME280;33105;47.964;7.982;2024-02-04T16:03:52;97841.25;;;7.20;100.00
47366;BME280;33105;47.964;7.982;2024-02-04T16:06:55;97836.72;;;7.14;100.00
47366;BME280;33105;47.964;7.982;2024-02-04T16:09:58;97843.34;;;7.25;100.00
47366;BME280;33105;47.964;7.982;2024-02-04T16:12:59;97846.53;;;7.15;100.00
47366;BME280;33105;47.964;7.982;2024-02-04T16:16:03;97846.34;;;6.97;100.00
47366;BME280;33105;47.964;7.982;2024-02-04T16:19:07;97847.59;;;7.07;100.00
47366;BME280;33105;47.964;7.982;2024-02-04T16:22:09;97837.13;;;7.18;100.00
47366;BME280;33105;47.964;7.982;2024-02-04T16:25:11;97850.09;;;7.09;100.00